sensor_id;sensor_type;location;lat;lon;timestamp;P1;durP1;ratioP1;P2;durP2;ratioP2
48777;SDS011;34578;0.000;0.000;2023-03-11T00:01:12;2.17;;;0.80;;
48777;SDS011;34578;0.000;0.000;2023-03-11T00:06:13;2.63;;;0.83;;
48777;SDS011;34578;0.000;0.000;2023-03-11T00:11:13;1.40;;;0.60;;
48777;SDS011;34578;0.000;0.000;2023-03-11T00:16:13;2.37;;;0.80;;
48777;SDS011;34578;0.000;0.000;2023-03-11T00:21:14;1.73;;;0.80;;
48777;SDS011;34578;0.000;0.000;2023-03-11T00:26:16;1.52;;;0.80;;
48777;SDS011;34578;0.000;0.000;2023-03-11T00:31:17;1.87;;;0.60;;
48777;SDS011;34578;0.000;0.000;2023-03-11T00:36:31;3.92;;;0.70;;
48777;SDS011;34578;0.000;0.000;2023-03-11T00:41:35;1.38;;;1.02;;
48777;SDS011;34578;0.000;0.000;2023-03-11T00:46:35;2.28;;;1.00;;
48777;SDS011;34578;0.000;0.000;2023-03-11T00:51:36;2.23;;;0.63;;
48777;SDS011;34578;0.000;0.000;2023-03-11T00:56:36;3.73;;;0.80;;
48777;SDS011;34578;0.000;0.000;2023-03-11T01:01:38;3.20;;;0.85;;
48777;SDS011;34578;0.000;0.000;2023-03-11T01:06:38;2.50;;;0.80;;
48777;SDS011;34578;0.000;0.000;2023-03-11T01:11:39;1.27;;;0.80;;
48777;SDS011;34578;0.000;0.000;2023-03-11T01:16:41;3.28;;;0.70;;
48777;SDS011;34578;0.000;0.000;2023-03-11T01:21:42;1.70;;;0.82;;
48777;SDS011;34578;0.000;0.000;2023-03-11T01:26:42;1.90;;;0.83;;
48777;SDS011;34578;0.000;0.000;2023-03-11T01:31:43;1.88;;;1.05;;
48777;SDS011;34578;0.000;0.000;2023-03-11T01:36:44;1.15;;;0.55;;
48777;SDS011;34578;0.000;0.000;2023-03-11T01:41:44;2.00;;;0.50;;
48777;SDS011;34578;0.000;0.000;2023-03-11T01:51:55;2.03;;;0.57;;
48777;SDS011;34578;0.000;0.000;2023-03-11T01:57:00;1.48;;;0.57;;
48777;SDS011;34578;0.000;0.000;2023-03-11T02:02:20;1.17;;;0.80;;
48777;SDS011;34578;0.000;0.000;2023-03-11T02:07:24;1.00;;;0.63;;
48777;SDS011;34578;0.000;0.000;2023-03-11T02:12:25;1.00;;;0.50;;
48777;SDS011;34578;0.000;0.000;2023-03-11T02:17:30;1.80;;;0.95;;
48777;SDS011;34578;0.000;0.000;2023-03-11T02:22:30;3.58;;;0.70;;
48777;SDS011;34578;0.000;0.000;2023-03-11T02:27:37;1.35;;;0.65;;
48777;SDS011;34578;0.000;0.000;2023-03-11T02:32:44;2.38;;;0.65;;
48777;SDS011;34578;0.000;0.000;2023-03-11T02:37:48;2.28;;;0.60;;
48777;SDS011;34578;0.000;0.000;2023-03-11T02:42:53;0.80;;;0.65;;
48777;SDS011;34578;0.000;0.000;2023-03-11T02:48:21;4.68;;;1.00;;
48777;SDS011;34578;0.000;0.000;2023-03-11T02:53:25;2.75;;;1.30;;
48777;SDS011;34578;0.000;0.000;2023-03-11T02:58:27;1.10;;;0.50;;
48777;SDS011;34578;0.000;0.000;2023-03-11T03:03:28;3.83;;;0.70;;
48777;SDS011;34578;0.000;0.000;2023-03-11T03:08:28;1.83;;;0.40;;
48777;SDS011;34578;0.000;0.000;2023-03-11T03:13:29;1.73;;;0.60;;
48777;SDS011;34578;0.000;0.000;2023-03-11T03:18:31;2.42;;;0.60;;
48777;SDS011;34578;0.000;0.000;2023-03-11T03:23:33;0.95;;;0.47;;
48777;SDS011;34578;0.000;0.000;2023-03-11T03:28:36;5.68;;;0.98;;
48777;SDS011;34578;0.000;0.000;2023-03-11T03:33:37;2.30;;;0.60;;
48777;SDS011;34578;0.000;0.000;2023-03-11T03:38:39;2.80;;;1.13;;
48777;SDS011;34578;0.000;0.000;2023-03-11T03:43:40;1.58;;;0.43;;
48777;SDS011;34578;0.000;0.000;2023-03-11T03:48:41;1.88;;;0.60;;
48777;SDS011;34578;0.000;0.000;2023-03-11T03:53:43;3.45;;;0.80;;
48777;SDS011;34578;0.000;0.000;2023-03-11T03:58:46;1.02;;;0.45;;
48777;SDS011;34578;0.000;0.000;2023-03-11T04:03:46;1.58;;;0.60;;
48777;SDS011;34578;0.000;0.000;2023-03-11T04:08:49;0.57;;;0.30;;
48777;SDS011;34578;0.000;0.000;2023-03-11T04:13:51;1.80;;;0.70;;
48777;SDS011;34578;0.000;0.000;2023-03-11T04:18:51;1.90;;;0.60;;
48777;SDS011;34578;0.000;0.000;2023-03-11T04:23:53;1.25;;;0.70;;
48777;SDS011;34578;0.000;0.000;2023-03-11T04:28:57;2.15;;;0.43;;
48777;SDS011;34578;0.000;0.000;2023-03-11T04:33:59;1.08;;;0.60;;
48777;SDS011;34578;0.000;0.000;2023-03-11T04:39:01;1.58;;;0.50;;
48777;SDS011;34578;0.000;0.000;2023-03-11T04:44:05;1.23;;;0.70;;
48777;SDS011;34578;0.000;0.000;2023-03-11T04:49:06;1.33;;;0.32;;
48777;SDS011;34578;0.000;0.000;2023-03-11T04:54:07;1.80;;;0.52;;
48777;SDS011;34578;0.000;0.000;2023-03-11T04:59:08;0.90;;;0.45;;
48777;SDS011;34578;0.000;0.000;2023-03-11T05:04:11;1.95;;;0.90;;
48777;SDS011;34578;0.000;0.000;2023-03-11T05:09:12;1.02;;;0.35;;
48777;SDS011;34578;0.000;0.000;2023-03-11T05:14:14;0.63;;;0.50;;
48777;SDS011;34578;0.000;0.000;2023-03-11T05:19:15;1.30;;;0.75;;
48777;SDS011;34578;0.000;0.000;2023-03-11T05:24:32;1.63;;;0.43;;
48777;SDS011;34578;0.000;0.000;2023-03-11T05:29:33;1.50;;;0.50;;
48777;SDS011;34578;0.000;0.000;2023-03-11T05:34:33;1.85;;;0.50;;
48777;SDS011;34578;0.000;0.000;2023-03-11T05:39:34;1.17;;;0.70;;
48777;SDS011;34578;0.000;0.000;2023-03-11T05:44:36;0.70;;;0.30;;
48777;SDS011;34578;0.000;0.000;2023-03-11T05:49:37;3.28;;;0.40;;
48777;SDS011;34578;0.000;0.000;2023-03-11T05:54:38;1.17;;;0.40;;
48777;SDS011;34578;0.000;0.000;2023-03-11T05:59:39;2.10;;;1.03;;
48777;SDS011;34578;0.000;0.000;2023-03-11T06:04:40;2.15;;;0.40;;
48777;SDS011;34578;0.000;0.000;2023-03-11T06:09:42;1.15;;;0.38;;
48777;SDS011;34578;0.000;0.000;2023-03-11T06:14:47;1.35;;;0.30;;
48777;SDS011;34578;0.000;0.000;2023-03-11T06:19:48;0.43;;;0.40;;
48777;SDS011;34578;0.000;0.000;2023-03-11T06:24:49;1.70;;;0.60;;
48777;SDS011;34578;0.000;0.000;2023-03-11T06:29:52;1.10;;;0.47;;
48777;SDS011;34578;0.000;0.000;2023-03-11T06:34:54;0.50;;;0.30;;
48777;SDS011;34578;0.000;0.000;2023-03-11T06:39:56;0.88;;;0.30;;
48777;SDS011;34578;0.000;0.000;2023-03-11T06:44:58;1.38;;;0.30;;
48777;SDS011;34578;0.000;0.000;2023-03-11T06:49:59;0.93;;;0.43;;
48777;SDS011;34578;0.000;0.000;2023-03-11T06:55:05;0.80;;;0.32;;
48777;SDS011;34578;0.000;0.000;2023-03-11T07:00:06;1.88;;;0.70;;
48777;SDS011;34578;0.000;0.000;2023-03-11T07:05:11;1.65;;;0.60;;
48777;SDS011;34578;0.000;0.000;2023-03-11T07:10:12;2.72;;;0.60;;
48777;SDS011;34578;0.000;0.000;2023-03-11T07:15:13;5.30;;;0.82;;
48777;SDS011;34578;0.000;0.000;2023-03-11T07:20:14;0.70;;;0.50;;
48777;SDS011;34578;0.000;0.000;2023-03-11T07:25:14;1.17;;;0.70;;
48777;SDS011;34578;0.000;0.000;2023-03-11T07:30:15;3.73;;;0.97;;
48777;SDS011;34578;0.000;0.000;2023-03-11T07:35:15;1.85;;;0.55;;
48777;SDS011;34578;0.000;0.000;2023-03-11T07:40:15;2.03;;;0.73;;
48777;SDS011;34578;0.000;0.000;2023-03-11T07:45:19;2.00;;;1.10;;
48777;SDS011;34578;0.000;0.000;2023-03-11T07:50:19;3.27;;;0.80;;
48777;SDS011;34578;0.000;0.000;2023-03-11T07:55:22;1.35;;;0.50;;
48777;SDS011;34578;0.000;0.000;2023-03-11T08:00:23;8.47;;;1.00;;
48777;SDS011;34578;0.000;0.000;2023-03-11T08:05:23;1.35;;;0.60;;
48777;SDS011;34578;0.000;0.000;2023-03-11T08:10:24;2.67;;;0.60;;
48777;SDS011;34578;0.000;0.000;2023-03-11T08:15:24;5.93;;;0.83;;
48777;SDS011;34578;0.000;0.000;2023-03-11T08:20:24;7.20;;;1.20;;
48777;SDS011;34578;0.000;0.000;2023-03-11T08:25:25;8.38;;;1.00;;
48777;SDS011;34578;0.000;0.000;2023-03-11T08:30:25;6.53;;;2.10;;
48777;SDS011;34578;0.000;0.000;2023-03-11T08:35:25;4.13;;;0.87;;
48777;SDS011;34578;0.000;0.000;2023-03-11T08:40:26;3.83;;;1.17;;
48777;SDS011;34578;0.000;0.000;2023-03-11T08:45:26;3.30;;;1.00;;
48777;SDS011;34578;0.000;0.000;2023-03-11T08:50:27;3.10;;;0.80;;
48777;SDS011;34578;0.000;0.000;2023-03-11T08:55:27;6.70;;;1.00;;
48777;SDS011;34578;0.000;0.000;2023-03-11T09:00:28;1.90;;;0.90;;
48777;SDS011;34578;0.000;0.000;2023-03-11T09:05:28;4.33;;;1.00;;
48777;SDS011;34578;0.000;0.000;2023-03-11T09:10:29;1.30;;;0.67;;
48777;SDS011;34578;0.000;0.000;2023-03-11T09:15:29;1.27;;;0.53;;
48777;SDS011;34578;0.000;0.000;2023-03-11T09:20:30;4.72;;;0.70;;
48777;SDS011;34578;0.000;0.000;2023-03-11T09:25:30;6.90;;;0.90;;
48777;SDS011;34578;0.000;0.000;2023-03-11T09:30:31;7.57;;;1.10;;
48777;SDS011;34578;0.000;0.000;2023-03-11T09:35:31;6.63;;;0.68;;
48777;SDS011;34578;0.000;0.000;2023-03-11T09:51:45;1.27;;;0.60;;
48777;SDS011;34578;0.000;0.000;2023-03-11T09:56:56;2.35;;;1.15;;
48777;SDS011;34578;0.000;0.000;2023-03-11T10:02:00;2.60;;;0.63;;
48777;SDS011;34578;0.000;0.000;2023-03-11T10:07:05;1.13;;;0.40;;
48777;SDS011;34578;0.000;0.000;2023-03-11T10:12:24;6.00;;;1.80;;
48777;SDS011;34578;0.000;0.000;2023-03-11T10:17:50;5.70;;;0.60;;
48777;SDS011;34578;0.000;0.000;2023-03-11T10:23:10;8.82;;;0.68;;
48777;SDS011;34578;0.000;0.000;2023-03-11T10:28:13;4.18;;;0.70;;
48777;SDS011;34578;0.000;0.000;2023-03-11T10:33:26;5.70;;;1.15;;
48777;SDS011;34578;0.000;0.000;2023-03-11T10:38:35;4.43;;;0.70;;
48777;SDS011;34578;0.000;0.000;2023-03-11T10:43:40;3.65;;;0.80;;
48777;SDS011;34578;0.000;0.000;2023-03-11T10:48:48;3.55;;;0.77;;
48777;SDS011;34578;0.000;0.000;2023-03-11T10:53:52;7.50;;;0.90;;
48777;SDS011;34578;0.000;0.000;2023-03-11T10:58:57;16.83;;;1.83;;
48777;SDS011;34578;0.000;0.000;2023-03-11T11:03:59;16.83;;;1.77;;
48777;SDS011;34578;0.000;0.000;2023-03-11T11:14:15;9.52;;;1.33;;
48777;SDS011;34578;0.000;0.000;2023-03-11T11:19:15;4.77;;;0.80;;
48777;SDS011;34578;0.000;0.000;2023-03-11T11:29:16;5.57;;;1.48;;
48777;SDS011;34578;0.000;0.000;2023-03-11T11:34:33;3.60;;;1.00;;
48777;SDS011;34578;0.000;0.000;2023-03-11T11:39:37;5.88;;;0.85;;
48777;SDS011;34578;0.000;0.000;2023-03-11T11:44:51;1.67;;;0.67;;
48777;SDS011;34578;0.000;0.000;2023-03-11T11:49:56;2.80;;;0.80;;
48777;SDS011;34578;0.000;0.000;2023-03-11T11:55:02;2.30;;;0.57;;
48777;SDS011;34578;0.000;0.000;2023-03-11T12:00:28;2.37;;;0.83;;
48777;SDS011;34578;0.000;0.000;2023-03-11T12:05:44;3.80;;;0.73;;
48777;SDS011;34578;0.000;0.000;2023-03-11T12:10:56;4.32;;;1.13;;
48777;SDS011;34578;0.000;0.000;2023-03-11T12:16:03;4.20;;;1.00;;
48777;SDS011;34578;0.000;0.000;2023-03-11T12:21:37;5.05;;;0.90;;
48777;SDS011;34578;0.000;0.000;2023-03-11T12:26:43;2.05;;;0.85;;
48777;SDS011;34578;0.000;0.000;2023-03-11T12:31:47;9.23;;;2.92;;
48777;SDS011;34578;0.000;0.000;2023-03-11T12:36:48;11.88;;;2.53;;
48777;SDS011;34578;0.000;0.000;2023-03-11T12:47:25;3.92;;;1.48;;
48777;SDS011;34578;0.000;0.000;2023-03-11T12:52:28;2.95;;;1.10;;
48777;SDS011;34578;0.000;0.000;2023-03-11T12:57:36;5.93;;;1.35;;
48777;SDS011;34578;0.000;0.000;2023-03-11T13:02:56;4.03;;;1.52;;
48777;SDS011;34578;0.000;0.000;2023-03-11T13:07:59;4.38;;;0.90;;
48777;SDS011;34578;0.000;0.000;2023-03-11T13:18:31;3.75;;;0.70;;
48777;SDS011;34578;0.000;0.000;2023-03-11T13:23:35;3.95;;;1.00;;
48777;SDS011;34578;0.000;0.000;2023-03-11T13:33:46;2.58;;;0.70;;
48777;SDS011;34578;0.000;0.000;2023-03-11T13:44:12;2.80;;;0.68;;
48777;SDS011;34578;0.000;0.000;2023-03-11T13:49:34;6.03;;;1.00;;
48777;SDS011;34578;0.000;0.000;2023-03-11T13:54:43;5.53;;;1.38;;
48777;SDS011;34578;0.000;0.000;2023-03-11T13:59:50;6.07;;;1.05;;
48777;SDS011;34578;0.000;0.000;2023-03-11T14:04:53;3.60;;;0.82;;
48777;SDS011;34578;0.000;0.000;2023-03-11T14:15:20;3.25;;;1.10;;
48777;SDS011;34578;0.000;0.000;2023-03-11T14:20:23;2.15;;;1.00;;
48777;SDS011;34578;0.000;0.000;2023-03-11T14:25:28;3.25;;;0.63;;
48777;SDS011;34578;0.000;0.000;2023-03-11T14:30:31;2.65;;;0.80;;
48777;SDS011;34578;0.000;0.000;2023-03-11T14:35:32;3.67;;;1.92;;
48777;SDS011;34578;0.000;0.000;2023-03-11T14:40:34;3.80;;;1.20;;
48777;SDS011;34578;0.000;0.000;2023-03-11T14:45:41;14.15;;;1.73;;
48777;SDS011;34578;0.000;0.000;2023-03-11T14:50:43;4.20;;;1.10;;
48777;SDS011;34578;0.000;0.000;2023-03-11T14:55:49;4.60;;;0.70;;
48777;SDS011;34578;0.000;0.000;2023-03-11T15:00:57;2.23;;;0.50;;
48777;SDS011;34578;0.000;0.000;2023-03-11T15:06:13;6.53;;;1.25;;
48777;SDS011;34578;0.000;0.000;2023-03-11T15:16:28;3.50;;;1.17;;
48777;SDS011;34578;0.000;0.000;2023-03-11T15:21:31;1.33;;;0.45;;
48777;SDS011;34578;0.000;0.000;2023-03-11T15:26:32;1.47;;;0.60;;
48777;SDS011;34578;0.000;0.000;2023-03-11T15:31:35;3.78;;;0.82;;
48777;SDS011;34578;0.000;0.000;2023-03-11T15:36:42;3.55;;;0.90;;
48777;SDS011;34578;0.000;0.000;2023-03-11T15:58:51;5.93;;;0.90;;
48777;SDS011;34578;0.000;0.000;2023-03-11T16:03:52;5.37;;;1.63;;
48777;SDS011;34578;0.000;0.000;2023-03-11T16:08:52;3.47;;;1.20;;
48777;SDS011;34578;0.000;0.000;2023-03-11T16:13:53;3.05;;;0.73;;
48777;SDS011;34578;0.000;0.000;2023-03-11T16:18:53;5.97;;;1.00;;
48777;SDS011;34578;0.000;0.000;2023-03-11T16:23:53;5.47;;;1.10;;
48777;SDS011;34578;0.000;0.000;2023-03-11T16:28:54;3.37;;;0.80;;
48777;SDS011;34578;0.000;0.000;2023-03-11T16:33:54;4.10;;;0.97;;
48777;SDS011;34578;0.000;0.000;2023-03-11T16:38:54;3.30;;;1.27;;
48777;SDS011;34578;0.000;0.000;2023-03-11T16:43:55;6.32;;;1.00;;
48777;SDS011;34578;0.000;0.000;2023-03-11T16:48:55;6.63;;;1.63;;
48777;SDS011;34578;0.000;0.000;2023-03-11T16:53:56;4.53;;;1.50;;
48777;SDS011;34578;0.000;0.000;2023-03-11T16:58:56;9.25;;;1.85;;
48777;SDS011;34578;0.000;0.000;2023-03-11T17:03:56;4.93;;;1.20;;
48777;SDS011;34578;0.000;0.000;2023-03-11T17:08:57;3.83;;;1.30;;
48777;SDS011;34578;0.000;0.000;2023-03-11T17:13:57;5.07;;;1.70;;
48777;SDS011;34578;0.000;0.000;2023-03-11T17:18:59;4.15;;;1.33;;
48777;SDS011;34578;0.000;0.000;2023-03-11T17:24:00;4.35;;;1.10;;
48777;SDS011;34578;0.000;0.000;2023-03-11T17:29:00;2.13;;;1.17;;
48777;SDS011;34578;0.000;0.000;2023-03-11T17:34:01;2.95;;;0.75;;
48777;SDS011;34578;0.000;0.000;2023-03-11T17:39:02;2.67;;;0.88;;
48777;SDS011;34578;0.000;0.000;2023-03-11T17:44:02;3.40;;;1.42;;
48777;SDS011;34578;0.000;0.000;2023-03-11T17:49:03;4.25;;;1.15;;
48777;SDS011;34578;0.000;0.000;2023-03-11T17:54:03;4.65;;;1.30;;
48777;SDS011;34578;0.000;0.000;2023-03-11T17:59:04;3.65;;;1.00;;
48777;SDS011;34578;0.000;0.000;2023-03-11T18:04:04;2.50;;;1.13;;
48777;SDS011;34578;0.000;0.000;2023-03-11T18:09:06;2.33;;;1.30;;
48777;SDS011;34578;0.000;0.000;2023-03-11T18:14:06;3.90;;;1.50;;
48777;SDS011;34578;0.000;0.000;2023-03-11T18:19:06;4.63;;;1.67;;
48777;SDS011;34578;0.000;0.000;2023-03-11T18:24:07;6.17;;;2.00;;
48777;SDS011;34578;0.000;0.000;2023-03-11T18:29:07;13.57;;;2.57;;
48777;SDS011;34578;0.000;0.000;2023-03-11T18:34:08;6.23;;;2.10;;
48777;SDS011;34578;0.000;0.000;2023-03-11T18:39:13;10.75;;;2.63;;
48777;SDS011;34578;0.000;0.000;2023-03-11T18:44:14;9.60;;;2.78;;
48777;SDS011;34578;0.000;0.000;2023-03-11T18:49:14;7.25;;;2.63;;
48777;SDS011;34578;0.000;0.000;2023-03-11T18:54:15;7.90;;;2.58;;
48777;SDS011;34578;0.000;0.000;2023-03-11T18:59:16;8.38;;;2.53;;
48777;SDS011;34578;0.000;0.000;2023-03-11T19:04:16;7.80;;;2.70;;
48777;SDS011;34578;0.000;0.000;2023-03-11T19:09:17;5.47;;;2.20;;
48777;SDS011;34578;0.000;0.000;2023-03-11T19:14:17;7.32;;;2.17;;
48777;SDS011;34578;0.000;0.000;2023-03-11T19:19:17;3.97;;;2.20;;
48777;SDS011;34578;0.000;0.000;2023-03-11T19:24:18;3.80;;;2.20;;
48777;SDS011;34578;0.000;0.000;2023-03-11T19:29:18;5.93;;;1.87;;
48777;SDS011;34578;0.000;0.000;2023-03-11T19:34:19;4.60;;;2.00;;
48777;SDS011;34578;0.000;0.000;2023-03-11T19:39:22;3.88;;;2.03;;
48777;SDS011;34578;0.000;0.000;2023-03-11T19:44:22;5.67;;;1.87;;
48777;SDS011;34578;0.000;0.000;2023-03-11T19:49:22;4.80;;;2.33;;
48777;SDS011;34578;0.000;0.000;2023-03-11T19:54:23;5.43;;;2.20;;
48777;SDS011;34578;0.000;0.000;2023-03-11T19:59:23;5.03;;;2.20;;
48777;SDS011;34578;0.000;0.000;2023-03-11T20:04:23;5.47;;;1.83;;
48777;SDS011;34578;0.000;0.000;2023-03-11T20:09:24;4.60;;;2.70;;
48777;SDS011;34578;0.000;0.000;2023-03-11T20:14:24;3.60;;;1.87;;
48777;SDS011;34578;0.000;0.000;2023-03-11T20:19:27;7.32;;;1.98;;
48777;SDS011;34578;0.000;0.000;2023-03-11T20:24:27;2.90;;;1.60;;
48777;SDS011;34578;0.000;0.000;2023-03-11T20:29:28;2.70;;;1.67;;
48777;SDS011;34578;0.000;0.000;2023-03-11T20:34:28;4.27;;;1.73;;
48777;SDS011;34578;0.000;0.000;2023-03-11T20:39:29;4.80;;;1.88;;
48777;SDS011;34578;0.000;0.000;2023-03-11T20:44:29;3.87;;;1.40;;
48777;SDS011;34578;0.000;0.000;2023-03-11T20:49:30;2.53;;;1.48;;
48777;SDS011;34578;0.000;0.000;2023-03-11T20:54:30;3.20;;;1.70;;
48777;SDS011;34578;0.000;0.000;2023-03-11T20:59:30;3.20;;;1.70;;
48777;SDS011;34578;0.000;0.000;2023-03-11T21:04:31;2.75;;;1.70;;
48777;SDS011;34578;0.000;0.000;2023-03-11T21:09:31;2.77;;;1.80;;
48777;SDS011;34578;0.000;0.000;2023-03-11T21:14:31;3.38;;;2.00;;
48777;SDS011;34578;0.000;0.000;2023-03-11T21:19:32;2.93;;;1.50;;
48777;SDS011;34578;0.000;0.000;2023-03-11T21:24:32;1.97;;;1.43;;
48777;SDS011;34578;0.000;0.000;2023-03-11T21:29:32;2.47;;;1.73;;
48777;SDS011;34578;0.000;0.000;2023-03-11T21:34:33;2.77;;;1.33;;
48777;SDS011;34578;0.000;0.000;2023-03-11T21:39:33;2.77;;;1.50;;
48777;SDS011;34578;0.000;0.000;2023-03-11T21:44:34;2.23;;;1.43;;
48777;SDS011;34578;0.000;0.000;2023-03-11T21:49:34;3.50;;;1.30;;
48777;SDS011;34578;0.000;0.000;2023-03-11T21:54:34;3.50;;;1.50;;
48777;SDS011;34578;0.000;0.000;2023-03-11T21:59:35;3.07;;;1.53;;
48777;SDS011;34578;0.000;0.000;2023-03-11T22:04:35;3.17;;;1.30;;
48777;SDS011;34578;0.000;0.000;2023-03-11T22:09:35;2.73;;;1.70;;
48777;SDS011;34578;0.000;0.000;2023-03-11T22:14:36;1.85;;;1.67;;
48777;SDS011;34578;0.000;0.000;2023-03-11T22:19:36;2.53;;;1.47;;
48777;SDS011;34578;0.000;0.000;2023-03-11T22:24:39;3.25;;;1.40;;
48777;SDS011;34578;0.000;0.000;2023-03-11T22:29:39;2.57;;;1.60;;
48777;SDS011;34578;0.000;0.000;2023-03-11T22:34:39;2.27;;;1.20;;
48777;SDS011;34578;0.000;0.000;2023-03-11T22:39:40;4.63;;;1.50;;
48777;SDS011;34578;0.000;0.000;2023-03-11T22:44:41;2.88;;;1.33;;
48777;SDS011;34578;0.000;0.000;2023-03-11T22:49:41;1.90;;;1.30;;
48777;SDS011;34578;0.000;0.000;2023-03-11T22:54:42;3.17;;;1.50;;
48777;SDS011;34578;0.000;0.000;2023-03-11T22:59:42;2.78;;;1.40;;
48777;SDS011;34578;0.000;0.000;2023-03-11T23:04:43;3.08;;;1.25;;
48777;SDS011;34578;0.000;0.000;2023-03-11T23:09:44;2.58;;;1.35;;
48777;SDS011;34578;0.000;0.000;2023-03-11T23:14:45;2.30;;;1.67;;
48777;SDS011;34578;0.000;0.000;2023-03-11T23:19:46;2.10;;;1.13;;
48777;SDS011;34578;0.000;0.000;2023-03-11T23:24:46;2.23;;;1.20;;
48777;SDS011;34578;0.000;0.000;2023-03-11T23:29:46;3.20;;;1.03;;
48777;SDS011;34578;0.000;0.000;2023-03-11T23:34:47;1.63;;;0.95;;
48777;SDS011;34578;0.000;0.000;2023-03-11T23:39:48;1.63;;;1.00;;
48777;SDS011;34578;0.000;0.000;2023-03-11T23:44:48;1.88;;;1.33;;
48777;SDS011;34578;0.000;0.000;2023-03-11T23:49:49;2.67;;;1.35;;
48777;SDS011;34578;0.000;0.000;2023-03-11T23:54:49;1.43;;;0.97;;
48777;SDS011;34578;0.000;0.000;2023-03-11T23:59:49;1.73;;;1.05;;
